.
WxDataArchive / Data Records for 2008-04-26
2008-04-25 April 2008 2008-04-27

Data Records for Saturday, 26 April 2008

Time	Temp	Chill	HIndex	Humid	Dewpt	 Wind 	HiWind	WindDir	Rain 	Barom 
-----	----	-----	------	-----	-----	------	------	-------	-----	----- 
00:00	70.8	70.8	70.8	61	56.7	1	3	248	0.00	29.696 
00:05	70.8	70.8	70.8	61	56.7	1	5	248	0.00	29.694 
00:10	70.8	70.8	70.8	61	56.7	2	9	248	0.00	29.695 
00:15	70.9	70.9	70.9	61	56.8	2	10	248	0.00	29.698 
00:20	71.1	71.1	71.1	60	56.5	2	5	225	0.00	29.696 
00:25	71.1	71.1	71.1	58	55.6	2	5	248	0.00	29.699 
00:30	71.5	71.5	71.5	57	55.5	3	9	248	0.00	29.700 
00:35	71.5	71.5	71.5	56	55.0	4	13	270	0.00	29.701 
00:40	71.5	71.5	71.5	55	54.5	5	16	270	0.00	29.703 
00:45	71.3	71.3	71.3	56	54.8	5	13	270	0.00	29.700 
00:50	71.1	71.1	71.1	57	55.1	3	12	248	0.00	29.702 
00:55	70.8	70.8	70.8	57	54.8	4	10	248	0.00	29.703 
01:00	70.6	70.6	70.6	58	55.1	2	5	248	0.00	29.697 
01:05	70.3	70.3	70.3	59	55.3	1	4	248	0.00	29.698 
01:10	69.9	69.9	69.9	59	54.9	3	10	270	0.00	29.698 
01:15	69.6	69.6	69.6	60	55.1	3	7	248	0.00	29.698 
01:20	69.4	69.4	69.4	61	55.4	5	11	248	0.00	29.697 
01:25	69.1	69.1	69.1	62	55.5	5	15	270	0.00	29.697 
01:30	68.9	68.9	68.9	63	55.8	5	15	248	0.00	29.697 
01:35	68.4	68.4	68.4	64	55.7	5	12	248	0.00	29.697 
01:40	68.3	68.3	68.3	65	56.1	3	10	248	0.00	29.700 
01:45	67.8	67.8	67.8	66	56.0	3	9	248	0.00	29.697 
01:50	67.4	67.4	67.4	67	56.1	4	10	248	0.00	29.697 
01:55	67.1	67.1	67.1	69	56.6	3	10	248	0.00	29.701 
02:00	66.9	66.9	66.9	69	56.4	4	11	248	0.00	29.707 
02:05	66.8	66.8	66.8	70	56.7	4	10	270	0.00	29.704 
02:10	66.6	66.6	66.6	71	56.9	5	11	248	0.00	29.699 
02:15	66.3	66.3	66.3	72	57.0	3	7	248	0.00	29.696 
02:20	66.1	66.1	66.1	72	56.8	3	7	248	0.00	29.692 
02:25	66.0	66.0	66.0	73	57.1	3	7	248	0.00	29.694 
02:30	66.0	66.0	66.0	73	57.1	3	11	248	0.00	29.699 
02:35	65.8	65.8	65.8	73	56.9	3	7	248	0.00	29.699 
02:40	65.8	65.8	65.8	74	57.3	2	5	248	0.00	29.699 
02:45	65.8	65.8	65.8	74	57.3	2	6	248	0.00	29.699 
02:50	65.8	65.8	65.8	75	57.6	2	4	248	0.00	29.700 
02:55	65.5	65.5	65.5	77	58.1	3	10	248	0.00	29.698 
03:00	64.7	64.7	64.7	79	58.0	5	14	248	0.00	29.702 
03:05	61.2	61.2	61.2	78	54.3	6	11	270	0.01	29.718 
03:10	58.3	58.3	58.3	80	52.2	6	14	270	0.00	29.732 
03:15	56.5	56.5	56.5	81	50.7	5	12	270	0.00	29.742 
03:20	55.6	55.6	55.6	82	50.2	3	6	270	0.00	29.741 
03:25	54.8	54.8	54.8	81	49.1	5	11	270	0.00	29.750 
03:30	54.2	54.2	54.2	82	48.8	3	8	248	0.00	29.754 
03:35	53.9	53.9	53.9	83	48.9	5	12	270	0.00	29.752 
03:40	53.6	53.6	53.6	84	48.9	3	7	248	0.00	29.758 
03:45	53.5	53.5	53.5	84	48.8	3	6	270	0.00	29.758 
03:50	53.3	53.3	53.3	84	48.6	3	5	248	0.00	29.761 
03:55	53.2	53.2	53.2	85	48.8	3	7	270	0.00	29.764 
04:00	53.1	53.1	53.1	85	48.7	2	4	248	0.00	29.770 
04:05	52.9	52.9	52.9	85	48.5	2	5	248	0.00	29.771 
04:10	52.8	52.8	52.8	85	48.4	2	6	248	0.00	29.767 
04:15	52.6	52.6	52.6	85	48.2	2	5	270	0.00	29.773 
04:20	52.2	52.2	52.2	83	47.2	3	5	270	0.00	29.775 
04:25	51.6	51.6	51.6	83	46.6	3	6	270	0.00	29.788 
04:30	51.1	51.1	51.1	84	46.4	3	9	270	0.00	29.791 
04:35	51.0	51.0	51.0	84	46.3	2	5	270	0.00	29.788 
04:40	51.0	51.0	51.0	85	46.7	1	4	248	0.00	29.784 
04:45	50.8	50.8	50.8	84	46.1	3	7	248	0.00	29.788 
04:50	50.7	50.7	50.7	83	45.7	3	11	270	0.00	29.791 
04:55	50.4	50.4	50.4	82	45.1	3	10	248	0.00	29.791 
05:00	50.2	50.2	50.2	82	44.9	3	6	270	0.00	29.795 
05:05	50.1	50.1	50.1	81	44.5	3	7	248	0.00	29.801 
05:10	49.6	48.4	49.6	78	43.0	4	12	270	0.00	29.802 
05:15	49.5	49.5	49.5	78	42.9	3	7	248	0.00	29.804 
05:20	49.4	49.4	49.4	79	43.2	2	7	270	0.00	29.807 
05:25	49.4	49.4	49.4	79	43.2	1	3	270	0.00	29.811 
05:30	49.2	49.2	49.2	78	42.6	1	5	248	0.00	29.815 
05:35	48.8	48.8	48.8	77	41.9	3	9	248	0.00	29.813 
05:40	48.5	48.5	48.5	77	41.6	3	6	270	0.00	29.818 
05:45	48.0	46.6	48.0	77	41.1	4	7	270	0.00	29.825 
05:50	47.9	47.9	47.9	78	41.4	3	7	270	0.00	29.829 
05:55	47.4	45.9	47.4	75	39.9	4	6	270	0.00	29.833 
06:00	47.1	47.1	47.1	76	39.9	2	5	270	0.00	29.840 
06:05	47.0	47.0	47.0	76	39.8	3	10	270	0.00	29.846 
06:10	46.8	45.2	46.8	76	39.6	4	11	270	0.00	29.855 
06:15	46.4	44.7	46.4	75	38.9	4	10	270	0.00	29.859 
06:20	46.1	44.4	46.1	76	39.0	4	9	270	0.00	29.863 
06:25	46.1	46.1	46.1	76	39.0	3	10	270	0.00	29.868 
06:30	46.1	46.1	46.1	76	39.0	2	6	270	0.00	29.873 
06:35	46.2	46.2	46.2	76	39.1	3	7	270	0.00	29.875 
06:40	46.2	46.2	46.2	77	39.4	2	6	248	0.00	29.876 
06:45	46.4	46.4	46.4	77	39.6	2	6	248	0.00	29.877 
06:50	46.5	46.5	46.5	77	39.7	3	9	248	0.00	29.879 
06:55	46.5	46.5	46.5	76	39.3	3	9	270	0.00	29.878 
07:00	46.5	46.5	46.5	77	39.7	3	6	270	0.00	29.882 
07:05	46.7	46.7	46.7	77	39.9	2	5	270	0.00	29.886 
07:10	47.0	47.0	47.0	77	40.2	3	9	248	0.00	29.886 
07:15	47.1	47.1	47.1	76	39.9	3	6	270	0.00	29.888 
07:20	47.3	45.8	47.3	76	40.1	4	9	270	0.00	29.890 
07:25	47.3	45.8	47.3	74	39.4	4	7	270	0.00	29.892 
07:30	47.3	45.8	47.3	74	39.4	4	10	270	0.00	29.893 
07:35	47.1	45.5	47.1	73	38.9	4	11	248	0.00	29.893 
07:40	47.0	45.4	47.0	73	38.8	4	9	270	0.00	29.894 
07:45	46.2	44.5	46.2	70	37.0	4	10	270	0.00	29.894 
07:50	46.0	44.2	46.0	71	37.1	4	14	270	0.00	29.894 
07:55	46.0	44.2	46.0	72	37.5	4	8	270	0.00	29.894 
08:00	45.8	43.3	45.8	71	36.9	5	12	270	0.00	29.894 
08:05	46.0	43.5	46.0	72	37.5	5	11	248	0.00	29.896 
08:10	46.2	46.2	46.2	73	38.0	3	11	248	0.00	29.898 
08:15	46.1	44.4	46.1	71	37.2	4	10	270	0.00	29.897 
08:20	46.0	43.5	46.0	72	37.5	5	13	270	0.00	29.903 
08:25	46.0	44.2	46.0	72	37.5	4	9	270	0.00	29.907 
08:30	46.0	46.0	46.0	73	37.8	3	4	270	0.00	29.910 
08:35	46.0	44.2	46.0	72	37.5	4	9	270	0.00	29.910 
08:40	45.8	44.0	45.8	72	37.3	4	9	270	0.00	29.911 
08:45	45.8	44.0	45.8	72	37.3	4	10	270	0.00	29.912 
08:50	46.0	44.2	46.0	73	37.8	4	10	270	0.00	29.913 
08:55	46.4	46.4	46.4	73	38.2	2	5	248	0.00	29.917 
09:00	47.0	45.4	47.0	71	38.1	4	13	270	0.00	29.917 
09:05	47.4	45.2	47.4	70	38.1	5	14	270	0.00	29.923 
09:10	47.7	45.5	47.7	69	38.0	5	9	270	0.00	29.922 
09:15	47.6	44.8	47.6	69	37.9	6	13	270	0.00	29.926 
09:20	48.3	46.9	48.3	68	38.2	4	11	270	0.00	29.929 
09:25	49.4	48.2	49.4	65	38.1	4	10	270	0.00	29.927 
09:30	49.6	48.4	49.6	65	38.3	4	13	270	0.00	29.927 
09:35	49.2	47.3	49.2	65	37.9	5	13	270	0.00	29.930 
09:40	49.1	47.8	49.1	66	38.2	4	10	270	0.00	29.932 
09:45	49.9	49.9	49.9	65	38.6	3	6	270	0.00	29.932 
09:50	49.8	48.0	49.8	64	38.1	5	12	270	0.00	29.936 
09:55	50.1	50.1	50.1	63	38.0	4	12	270	0.00	29.938 
10:00	49.8	48.0	49.8	63	37.7	5	10	270	0.00	29.939 
10:05	49.9	48.8	49.9	63	37.8	4	7	270	0.00	29.941 
10:10	49.4	47.5	49.4	62	36.9	5	10	270	0.00	29.943 
10:15	50.2	50.2	50.2	63	38.1	5	14	270	0.00	29.946 
10:20	50.2	50.2	50.2	62	37.7	7	15	270	0.00	29.950 
10:25	50.7	50.7	50.7	64	39.0	5	11	270	0.00	29.944 
10:30	50.8	50.8	50.8	61	37.8	5	12	270	0.00	29.949 
10:35	51.1	51.1	51.1	59	37.3	4	9	270	0.00	29.952 
10:40	51.6	51.6	51.6	58	37.3	4	9	248	0.00	29.950 
10:45	51.7	51.7	51.7	60	38.3	5	12	270	0.00	29.954 
10:50	51.7	51.7	51.7	59	37.8	5	10	270	0.00	29.954 
10:55	52.2	52.2	52.2	62	39.6	3	10	270	0.00	29.952 
11:00	52.2	52.2	52.2	58	37.9	3	7	270	0.00	29.952 
11:05	52.5	52.5	52.5	58	38.2	4	10	270	0.00	29.952 
11:10	52.6	52.6	52.6	58	38.2	4	10	270	0.00	29.950 
11:15	53.1	53.1	53.1	58	38.7	4	16	248	0.00	29.952 
11:20	53.3	53.3	53.3	56	38.0	5	12	248	0.00	29.952 
11:25	53.6	53.6	53.6	56	38.3	4	9	270	0.00	29.954 
11:30	53.5	53.5	53.5	57	38.6	4	11	270	0.00	29.954 
11:35	53.9	53.9	53.9	57	39.0	3	6	270	0.00	29.955 
11:40	55.0	55.0	55.0	55	39.1	3	7	248	0.00	29.955 
11:45	54.7	54.7	54.7	52	37.4	5	14	248	0.00	29.955 
11:50	54.8	54.8	54.8	52	37.5	4	10	248	0.00	29.958 
11:55	55.3	55.3	55.3	53	38.5	4	10	248	0.00	29.958 
12:00	54.8	54.8	54.8	51	37.0	6	14	270	0.00	29.959 
12:05	55.0	55.0	55.0	50	36.7	5	14	270	0.00	29.960 
12:10	54.8	54.8	54.8	50	36.5	7	15	270	0.00	29.957 
12:15	55.0	55.0	55.0	53	38.2	5	12	270	0.00	29.958 
12:20	55.3	55.3	55.3	52	38.0	6	15	270	0.00	29.955 
12:25	55.6	55.6	55.6	52	38.3	5	16	270	0.00	29.954 
12:30	56.0	56.0	56.0	50	37.6	4	11	270	0.00	29.955 
12:35	56.0	56.0	56.0	48	36.6	6	13	270	0.00	29.959 
12:40	56.5	56.5	56.5	50	38.1	5	11	270	0.00	29.958 
12:45	56.3	56.3	56.3	48	36.9	6	12	270	0.00	29.958 
12:50	56.3	56.3	56.3	47	36.3	6	11	270	0.00	29.962 
12:55	56.7	56.7	56.7	48	37.2	6	11	270	0.00	29.964 
13:00	57.3	57.3	57.3	49	38.3	5	10	270	0.00	29.966 
13:05	57.3	57.3	57.3	50	38.8	6	14	270	0.00	29.969 
13:10	57.3	57.3	57.3	46	36.7	6	15	270	0.00	29.969 
13:15	57.8	57.8	57.8	47	37.7	4	10	270	0.00	29.969 
13:20	58.4	58.4	58.4	48	38.8	4	10	270	0.00	29.970 
13:25	58.7	58.7	58.7	46	38.0	4	10	270	0.00	29.969 
13:30	58.7	58.7	58.7	48	39.1	4	10	270	0.00	29.968 
13:35	58.9	58.9	58.9	46	38.2	4	9	270	0.00	29.969 
13:40	59.6	59.6	59.6	46	38.8	3	15	270	0.00	29.972 
13:45	59.6	59.6	59.6	46	38.8	5	11	270	0.00	29.979 
13:50	59.5	59.5	59.5	47	39.3	4	11	270	0.00	29.981 
13:55	59.8	59.8	59.8	44	37.8	6	17	248	0.00	29.982 
14:00	59.8	59.8	59.8	43	37.3	5	13	270	0.00	29.983 
14:05	59.6	59.6	59.6	46	38.8	4	12	270	0.00	29.982 
14:10	59.9	59.9	59.9	43	37.3	5	11	270	0.00	29.984 
14:15	60.1	60.1	60.1	44	38.1	4	7	270	0.00	29.982 
14:20	60.4	60.4	60.4	44	38.4	4	9	270	0.00	29.984 
14:25	60.5	60.5	60.5	42	37.3	4	10	270	0.00	29.984 
14:30	61.0	61.0	61.0	41	37.1	5	12	248	0.00	29.984 
14:35	61.0	61.0	61.0	43	38.3	4	13	270	0.00	29.982 
14:40	61.8	61.8	61.8	41	37.8	4	10	248	0.00	29.981 
14:45	61.8	61.8	61.8	37	35.3	5	13	270	0.00	29.984 
14:50	61.6	61.6	61.6	40	37.0	5	11	270	0.00	29.983 
14:55	61.5	61.5	61.5	39	36.3	6	14	270	0.00	29.983 
15:00	61.5	61.5	61.5	39	36.3	6	14	248	0.00	29.984 
15:05	61.2	61.2	61.2	39	36.0	5	14	270	0.00	29.995 
15:10	61.3	61.3	61.3	38	35.5	5	11	270	0.00	29.994 
15:15	61.5	61.5	61.5	39	36.3	4	10	270	0.00	29.993 
15:20	61.8	61.8	61.8	38	35.9	5	13	248	0.00	29.993 
15:25	61.8	61.8	61.8	38	35.9	5	10	270	0.00	29.994 
15:30	61.8	61.8	61.8	38	35.9	4	7	270	0.00	29.995 
15:35	62.0	62.0	62.0	36	34.7	5	12	248	0.00	30.000 
15:40	62.1	62.1	62.1	38	36.2	4	12	270	0.00	30.000 
15:45	61.8	61.8	61.8	35	33.9	5	12	270	0.00	30.002 
15:50	61.8	61.8	61.8	36	34.6	5	10	270	0.00	30.005 
15:55	61.8	61.8	61.8	35	33.9	5	12	248	0.00	30.004 
16:00	61.6	61.6	61.6	35	33.7	4	11	270	0.00	30.006 
16:05	62.1	62.1	62.1	36	34.8	4	11	248	0.00	30.008 
16:10	62.7	62.7	62.7	38	36.7	3	9	248	0.00	30.009 
16:15	62.6	62.6	62.6	35	34.6	4	8	248	0.00	30.009 
16:20	62.4	62.4	62.4	38	36.5	4	11	248	0.00	30.009 
16:25	62.4	62.4	62.4	34	33.7	4	10	270	0.00	30.010 
16:30	62.3	62.3	62.3	32	32.1	6	14	270	0.00	30.011 
16:35	61.8	61.8	61.8	33	32.4	5	11	248	0.00	30.012 
16:40	61.8	61.8	61.8	31	30.8	4	9	270	0.00	30.013 
16:45	61.8	61.8	61.8	33	32.4	5	12	270	0.00	30.019 
16:50	61.8	61.8	61.8	34	33.1	4	11	270	0.00	30.022 
16:55	61.5	61.5	61.5	35	33.6	4	10	248	0.00	30.020 
17:00	61.5	61.5	61.5	35	33.6	3	9	270	0.00	30.021 
17:05	61.6	61.6	61.6	36	34.4	2	7	270	0.00	30.025 
17:10	61.8	61.8	61.8	35	33.9	3	10	270	0.00	30.023 
17:15	61.5	61.5	61.5	35	33.6	3	6	248	0.00	30.023 
17:20	61.3	61.3	61.3	34	32.7	5	12	270	0.00	30.026 
17:25	61.0	61.0	61.0	36	33.9	4	6	270	0.00	30.022 
17:30	61.0	61.0	61.0	35	33.2	4	7	270	0.00	30.026 
17:35	61.0	61.0	61.0	34	32.4	3	8	248	0.00	30.022 
17:40	61.2	61.2	61.2	35	33.3	3	8	248	0.00	30.026 
17:45	61.0	61.0	61.0	35	33.2	4	16	248	0.00	30.028 
17:50	60.9	60.9	60.9	35	33.1	4	13	248	0.00	30.028 
17:55	60.7	60.7	60.7	35	32.9	3	7	270	0.00	30.028 
18:00	60.4	60.4	60.4	35	32.6	5	14	270	0.00	30.029 
18:05	60.2	60.2	60.2	35	32.4	3	9	270	0.00	30.031 
18:10	60.2	60.2	60.2	36	33.1	2	7	248	0.00	30.031 
18:15	59.9	59.9	59.9	35	32.2	3	7	270	0.00	30.030 
18:20	59.8	59.8	59.8	36	32.8	3	10	270	0.00	30.030 
18:25	59.6	59.6	59.6	36	32.6	3	6	248	0.00	30.033 
18:30	59.3	59.3	59.3	36	32.4	3	11	270	0.00	30.033 
18:35	59.0	59.0	59.0	36	32.1	2	4	270	0.00	30.033 
18:40	58.9	58.9	58.9	38	33.3	2	5	270	0.00	30.033 
18:45	58.7	58.7	58.7	38	33.2	2	5	248	0.00	30.033 
18:50	58.6	58.6	58.6	39	33.7	2	4	270	0.00	30.034 
18:55	58.4	58.4	58.4	38	32.9	4	11	248	0.00	30.035 
19:00	58.3	58.3	58.3	37	32.1	4	12	248	0.00	30.038 
19:05	58.1	58.1	58.1	38	32.6	2	9	248	0.00	30.038 
19:10	58.0	58.0	58.0	39	33.2	4	9	270	0.00	30.040 
19:15	57.6	57.6	57.6	39	32.8	3	7	248	0.00	30.038 
19:20	57.5	57.5	57.5	39	32.7	1	4	248	0.00	30.043 
19:25	57.3	57.3	57.3	39	32.6	2	5	248	0.00	30.045 
19:30	57.2	57.2	57.2	39	32.5	2	7	248	0.00	30.047 
19:35	57.0	57.0	57.0	40	32.9	1	4	248	0.00	30.051 
19:40	56.7	56.7	56.7	40	32.7	1	5	248	0.00	30.053 
19:45	56.5	56.5	56.5	41	33.1	1	4	270	0.00	30.055 
19:50	56.3	56.3	56.3	41	32.9	1	4	248	0.00	30.054 
19:55	56.2	56.2	56.2	42	33.4	1	4	225	0.00	30.060 
20:00	56.0	56.0	56.0	42	33.2	1	6	248	0.00	30.062 
20:05	56.0	56.0	56.0	42	33.2	2	7	248	0.00	30.063 
20:10	56.0	56.0	56.0	42	33.2	2	5	248	0.00	30.063 
20:15	55.9	55.9	55.9	43	33.7	1	4	248	0.00	30.065 
20:20	55.7	55.7	55.7	43	33.6	1	5	248	0.00	30.064 
20:25	55.6	55.6	55.6	43	33.5	2	4	248	0.00	30.066 
20:30	55.4	55.4	55.4	43	33.3	1	6	225	0.00	30.065 
20:35	55.1	55.1	55.1	44	33.6	1	3	248	0.00	30.066 
20:40	55.0	55.0	55.0	44	33.5	1	4	248	0.00	30.063 
20:45	55.0	55.0	55.0	45	34.1	2	5	248	0.00	30.067 
20:50	55.0	55.0	55.0	45	34.1	1	5	248	0.00	30.066 
20:55	54.7	54.7	54.7	46	34.3	0	2	248	0.00	30.068 
21:00	54.5	54.5	54.5	45	33.6	2	5	248	0.00	30.069 
21:05	54.5	54.5	54.5	46	34.1	1	4	225	0.00	30.070 
21:10	54.4	54.4	54.4	46	34.1	1	4	248	0.00	30.074 
21:15	54.4	54.4	54.4	46	34.1	1	5	248	0.00	30.078 
21:20	54.2	54.2	54.2	46	33.9	1	4	248	0.00	30.080 
21:25	54.2	54.2	54.2	47	34.4	1	2	248	0.00	30.083 
21:30	53.9	53.9	53.9	47	34.1	1	3	248	0.00	30.082 
21:35	53.9	53.9	53.9	47	34.1	1	3	248	0.00	30.081 
21:40	53.8	53.8	53.8	47	34.0	1	6	248	0.00	30.084 
21:45	53.8	53.8	53.8	47	34.0	1	4	248	0.00	30.088 
21:50	53.6	53.6	53.6	48	34.4	1	5	248	0.00	30.087 
21:55	53.5	53.5	53.5	49	34.8	0	3	248	0.00	30.087 
22:00	53.2	53.2	53.2	49	34.5	1	4	248	0.00	30.093 
22:05	53.2	53.2	53.2	49	34.5	1	5	248	0.00	30.092 
22:10	53.2	53.2	53.2	49	34.5	2	4	248	0.00	30.090 
22:15	53.3	53.3	53.3	48	34.1	3	6	248	0.00	30.089 
22:20	53.3	53.3	53.3	48	34.1	2	7	270	0.00	30.094 
22:25	53.3	53.3	53.3	48	34.1	2	5	248	0.00	30.094 
22:30	53.1	53.1	53.1	49	34.4	1	2	248	0.00	30.096 
22:35	52.9	52.9	52.9	49	34.3	2	5	248	0.00	30.097 
22:40	52.8	52.8	52.8	50	34.7	1	4	225	0.00	30.098 
22:45	52.6	52.6	52.6	50	34.5	1	4	248	0.00	30.099 
22:50	52.5	52.5	52.5	50	34.4	1	4	248	0.00	30.099 
22:55	52.2	52.2	52.2	51	34.6	0	2	248	0.00	30.099 
23:00	52.0	52.0	52.0	51	34.4	1	4	248	0.00	30.101 
23:05	51.7	51.7	51.7	52	34.6	0	3	248	0.00	30.098 
23:10	51.6	51.6	51.6	52	34.6	1	2	248	0.00	30.096 
23:15	51.4	51.4	51.4	53	34.8	1	2	248	0.00	30.097 
23:20	51.3	51.3	51.3	53	34.8	1	3	248	0.00	30.097 
23:25	51.1	51.1	51.1	54	35.0	0	1	248	0.00	30.097 
23:30	50.8	50.8	50.8	54	34.8	0	2	248	0.00	30.095 
23:35	50.5	50.5	50.5	54	34.5	0	1	248	0.00	30.097 
23:40	50.4	50.4	50.4	54	34.4	0	2	248	0.00	30.099 
23:45	50.2	50.2	50.2	54	34.2	0	2	248	0.00	30.102 
23:50	50.2	50.2	50.2	54	34.2	0	2	248	0.00	30.101 
23:55	49.9	49.9	49.9	55	34.4	0	1	248	0.00	30.100 

CoCoRaHS
IN-AL-39
A2 Web Hosting
Creative Commons License
GoDaddy
Look for:

loaded 2017-12-12 07:18:31 • last modified 2010-11-18 10:43:29
Privacy PolicyDisclaimer
• wx.awcolley.com is powered by PmWiki v.2002016 •
• all content (unless otherwise noted) © 2017 A W Colley